Aérodrome :
LOGIN :

S'inscrire | Disclaimer

   EN    FR    IT 

 










Légende :    VFR   VFR Marginal   IFR   IFR Intensif   IFR Très Intensif
Visi : 
Plafond : 
>= 8 km
>= 3000ft
5 à 8 km
1000 à 3000 ft
1500m à 5 km
500 à 1000 ft
800 à 1500m
200 à 500 ft
< 800m
< 200 ft
Symboles :   Orages  Brouillard  Fortes neiges  Fortes précipitations  Vent > 20 kt
SIGMETs :   Divers  Orages  Givrage  Turbulence  Onde Orograph.  Cendres Volcan.







- Altitude de l'aérodrome : 3125 ft
- Code IATA : ESB


LTAC - Ankara Esenboga

DERNIER METAR :
  • 251920Z 02005KT 350V050 CAVOK 22/14 Q1018 NOSIG RMK RWY21L VRB02KT RWY03L 03004KT 360V070 RWY21R 06004KT

METARs EXPIRÉS :
  • 251850Z 06005KT CAVOK 23/13 Q1018 NOSIG RMK RWY21L 02007KT RWY03L 07004KT RWY21R 01009KT
  • 251820Z 04008KT CAVOK 23/14 Q1018 NOSIG
  • 251750Z 03009KT 9999 FEW040 24/14 Q1017 NOSIG RMK RWY21L 01009KT RWY03L 01009KT RWY21R 02009KT
  • 251720Z 01011KT 9999 FEW040 25/13 Q1017 NOSIG RMK RWY21L 36009KT RWY03L 01011KT RWY21R 01010KT
  • 251650Z 01010KT 9999 FEW040 27/14 Q1017 NOSIG

TAF TAF LTAC
Valide du 25 à 18h jusqu'au 26 à 18h UTC


251640Z 2518/2618 VRB02KT CAVOK
BECMG 2606/2608 SCT040
Pas de NOTAMs connus pour ce terrain.



MET'MAP, la Météo Aéronautique d'un coup d'oeil ! - Copyright ORBIFLY Décembre 2007 - Disclaimer

ORBIFLY MET'MAP TEAM :

Programmation & Développement : Alexandra Zaïnal
Conception & Développement : Baudouin d'Aumeries
Co-Programmation & Développement : Marc-Olivier Méhu
Soutien technique & logistique : Manuel Goepfert

Contact : metmap@orbifly.com




SOURCES & CREDITS :

   NOAA